createdAt,value
2023-03-22T00:02:48.829Z,12.27
2023-03-22T00:05:57.192Z,12.50
2023-03-22T00:08:59.201Z,12.23
2023-03-22T00:12:01.001Z,12.57
2023-03-22T00:15:02.858Z,12.15
2023-03-22T00:18:05.852Z,12.00
2023-03-22T00:21:12.443Z,10.88
2023-03-22T00:24:14.282Z,11.73
2023-03-22T00:27:15.955Z,12.48
2023-03-22T00:30:18.027Z,11.43
2023-03-22T00:33:19.894Z,12.23
2023-03-22T00:36:21.727Z,12.60
2023-03-22T00:39:27.083Z,12.65
2023-03-22T00:42:28.832Z,12.68
2023-03-22T00:45:30.676Z,11.38
2023-03-22T00:48:32.864Z,13.13
2023-03-22T00:51:34.533Z,10.63
2023-03-22T00:54:36.326Z,12.63
2023-03-22T00:57:38.232Z,11.57
2023-03-22T01:00:40.282Z,12.13
2023-03-22T01:03:43.752Z,12.52
2023-03-22T01:06:49.014Z,12.75
2023-03-22T01:09:51.969Z,12.73
2023-03-22T01:12:54.154Z,12.02
2023-03-22T01:15:56.328Z,12.43
2023-03-22T01:18:58.392Z,12.65
2023-03-22T01:22:00.671Z,12.90
2023-03-22T01:25:03.167Z,13.27
2023-03-22T01:28:06.900Z,14.82
2023-03-22T01:31:08.888Z,15.07
2023-03-22T01:34:10.738Z,14.90
2023-03-22T01:37:13.080Z,14.35
2023-03-22T01:40:19.547Z,14.43
2023-03-22T01:43:21.862Z,12.82
2023-03-22T01:46:23.604Z,12.55
2023-03-22T01:49:33.758Z,12.57
2023-03-22T01:52:37.756Z,13.07
2023-03-22T01:55:47.308Z,12.88
2023-03-22T01:58:56.700Z,12.30
2023-03-22T02:02:07.770Z,12.30
2023-03-22T02:05:12.375Z,11.35
2023-03-22T02:08:15.053Z,13.10
2023-03-22T02:11:42.880Z,12.25
2023-03-22T02:15:10.494Z,12.10
2023-03-22T02:18:51.897Z,12.07
2023-03-22T02:21:56.330Z,11.60
2023-03-22T02:25:31.227Z,13.00
2023-03-22T02:28:46.244Z,12.38
2023-03-22T02:32:06.741Z,12.77
2023-03-22T02:35:27.131Z,12.48
2023-03-22T02:38:52.581Z,11.75
2023-03-22T02:42:12.574Z,12.43
2023-03-22T02:45:21.702Z,13.75
2023-03-22T02:48:39.523Z,12.43
2023-03-22T02:51:48.022Z,12.35
2023-03-22T02:58:15.704Z,11.13
2023-03-22T03:04:35.607Z,12.02
2023-03-22T03:07:38.691Z,12.77
2023-03-22T03:10:42.546Z,12.30
2023-03-22T03:13:47.855Z,12.13
2023-03-22T03:17:06.422Z,11.05
2023-03-22T03:21:03.330Z,11.65
2023-03-22T03:24:30.568Z,13.18
2023-03-22T03:27:49.862Z,12.20
2023-03-22T03:31:06.662Z,11.32
2023-03-22T03:34:22.215Z,10.90
2023-03-22T03:37:31.693Z,12.10
2023-03-22T03:40:37.757Z,12.23
2023-03-22T03:43:42.097Z,12.23
2023-03-22T03:46:46.072Z,10.68
2023-03-22T03:49:47.930Z,10.38
2023-03-22T03:52:49.834Z,10.10
2023-03-22T03:55:51.607Z,10.32
2023-03-22T03:58:53.392Z,8.77
2023-03-22T04:01:55.676Z,8.63
2023-03-22T04:05:04.083Z,8.88
2023-03-22T04:08:05.825Z,8.20
2023-03-22T04:11:08.095Z,7.97
2023-03-22T04:14:10.431Z,8.50
2023-03-22T04:17:13.024Z,7.35
2023-03-22T04:20:15.248Z,8.35
2023-03-22T04:23:17.397Z,8.13
2023-03-22T04:26:21.841Z,7.93
2023-03-22T04:29:48.237Z,7.85
2023-03-22T04:33:07.945Z,6.75
2023-03-22T04:36:48.080Z,7.70
2023-03-22T04:40:01.345Z,7.53
2023-03-22T04:43:26.050Z,7.20
2023-03-22T04:46:36.874Z,8.63
2023-03-22T04:49:41.867Z,8.23
2023-03-22T04:52:44.174Z,8.30
2023-03-22T04:55:46.199Z,8.90
2023-03-22T04:58:48.205Z,9.38
2023-03-22T05:01:51.659Z,10.32
2023-03-22T05:04:56.956Z,9.65
2023-03-22T05:08:14.419Z,9.43
2023-03-22T05:11:20.271Z,9.23
2023-03-22T05:14:34.004Z,10.55
2023-03-22T05:17:36.070Z,11.65
2023-03-22T05:20:38.579Z,11.65
2023-03-22T05:23:58.195Z,11.85
2023-03-22T05:27:03.990Z,13.43
2023-03-22T05:30:08.044Z,12.82
2023-03-22T05:33:22.016Z,12.45
2023-03-22T05:36:29.687Z,12.55
2023-03-22T05:39:54.580Z,11.88
2023-03-22T05:43:01.668Z,12.85
2023-03-22T05:46:06.553Z,11.90
2023-03-22T05:49:19.819Z,11.68
2023-03-22T05:52:21.781Z,11.65
2023-03-22T05:55:44.892Z,12.20
2023-03-22T05:58:47.265Z,11.77
2023-03-22T06:01:52.136Z,11.55
2023-03-22T06:04:57.808Z,12.50
2023-03-22T06:08:00.267Z,12.52
2023-03-22T06:11:02.169Z,11.07
2023-03-22T06:14:04.690Z,11.32
2023-03-22T06:17:21.348Z,10.07
2023-03-22T06:20:25.848Z,10.02
2023-03-22T06:23:34.234Z,10.10
2023-03-22T06:26:36.150Z,10.10
2023-03-22T06:29:38.134Z,9.40
2023-03-22T06:32:41.556Z,8.75
2023-03-22T06:35:44.429Z,8.75
2023-03-22T06:38:50.873Z,9.15
2023-03-22T06:41:52.600Z,8.38
2023-03-22T06:44:54.267Z,7.72
2023-03-22T06:48:06.116Z,6.65
2023-03-22T06:51:32.173Z,6.35
2023-03-22T06:54:34.265Z,5.97
2023-03-22T06:57:36.119Z,6.88
2023-03-22T07:00:39.012Z,6.43
2023-03-22T07:03:42.418Z,5.90
2023-03-22T07:06:48.439Z,5.70
2023-03-22T07:09:51.268Z,6.00
2023-03-22T07:12:53.163Z,5.85
2023-03-22T07:16:00.175Z,5.15
2023-03-22T07:19:10.146Z,5.63
2023-03-22T07:22:12.081Z,5.97
2023-03-22T07:25:13.893Z,5.30
2023-03-22T07:28:16.479Z,5.38
2023-03-22T07:31:18.760Z,5.18
2023-03-22T07:34:27.210Z,5.18
2023-03-22T07:37:49.262Z,5.28
2023-03-22T07:44:17.438Z,4.63
2023-03-22T07:47:39.866Z,4.93
2023-03-22T07:51:03.047Z,4.20
2023-03-22T07:54:07.597Z,4.60
2023-03-22T07:57:09.916Z,4.28
2023-03-22T08:00:18.595Z,5.15
2023-03-22T08:03:30.458Z,5.63
2023-03-22T08:06:42.722Z,5.80
2023-03-22T08:09:49.656Z,5.53
2023-03-22T08:12:51.392Z,6.25
2023-03-22T08:15:59.130Z,7.40
2023-03-22T08:19:01.918Z,6.97
2023-03-22T08:22:56.837Z,7.40
2023-03-22T08:26:02.135Z,7.78
2023-03-22T08:29:04.971Z,8.52
2023-03-22T08:32:10.669Z,8.00
2023-03-22T08:35:12.985Z,8.20
2023-03-22T08:38:16.868Z,8.63
2023-03-22T08:41:23.674Z,8.00
2023-03-22T08:44:26.945Z,8.02
2023-03-22T08:47:30.349Z,7.72
2023-03-22T08:50:37.670Z,7.07
2023-03-22T08:53:51.447Z,8.02
2023-03-22T08:57:15.481Z,7.43
2023-03-22T09:00:48.714Z,7.60
2023-03-22T09:04:02.343Z,7.10
2023-03-22T09:07:05.303Z,7.97
2023-03-22T09:10:09.367Z,7.03
2023-03-22T09:13:16.858Z,7.97
2023-03-22T09:16:26.131Z,6.80
2023-03-22T09:19:30.494Z,7.55
2023-03-22T09:22:33.037Z,7.90
2023-03-22T09:25:37.278Z,6.07
2023-03-22T09:28:40.137Z,6.53
2023-03-22T09:31:44.660Z,6.15
2023-03-22T09:34:57.632Z,5.72
2023-03-22T09:38:06.128Z,6.47
2023-03-22T09:41:16.821Z,7.30
2023-03-22T09:44:31.944Z,5.80
2023-03-22T09:47:44.876Z,6.13
2023-03-22T09:50:51.988Z,5.95
2023-03-22T09:53:54.196Z,5.97
2023-03-22T09:57:00.084Z,5.80
2023-03-22T10:00:46.790Z,5.63
2023-03-22T10:04:10.068Z,4.68
2023-03-22T10:07:20.416Z,4.45
2023-03-22T10:10:24.271Z,5.43
2023-03-22T10:13:48.951Z,5.05
2023-03-22T10:16:56.542Z,3.00
2023-03-22T10:20:09.091Z,2.20
2023-03-22T10:23:17.236Z,3.20
2023-03-22T10:26:20.067Z,2.80
2023-03-22T10:29:30.658Z,3.00
2023-03-22T10:32:57.837Z,2.90
2023-03-22T10:36:02.941Z,3.00
2023-03-22T10:39:17.229Z,2.47
2023-03-22T10:42:26.942Z,2.42
2023-03-22T10:45:34.489Z,2.50
2023-03-22T10:48:42.089Z,3.03
2023-03-22T10:51:49.808Z,2.58
2023-03-22T10:54:52.083Z,2.83
2023-03-22T10:58:18.359Z,2.85
2023-03-22T11:01:33.507Z,2.33
2023-03-22T11:04:38.038Z,2.97
2023-03-22T11:07:44.590Z,3.10
2023-03-22T11:10:52.063Z,2.90
2023-03-22T11:14:00.675Z,2.63
2023-03-22T11:17:06.159Z,2.67
2023-03-22T11:20:16.172Z,3.33
2023-03-22T11:23:20.781Z,2.70
2023-03-22T11:26:35.690Z,2.70
2023-03-22T11:29:48.458Z,2.70
2023-03-22T11:33:03.877Z,2.30
2023-03-22T11:36:17.171Z,3.13
2023-03-22T11:39:21.891Z,2.70
2023-03-22T11:42:24.146Z,3.00
2023-03-22T11:45:36.144Z,2.70
2023-03-22T11:48:42.255Z,2.70
2023-03-22T11:51:46.205Z,2.50
2023-03-22T11:54:49.869Z,2.70
2023-03-22T11:57:55.975Z,2.75
2023-03-22T12:01:02.836Z,2.67
2023-03-22T12:04:10.418Z,2.70
2023-03-22T12:07:17.179Z,2.58
2023-03-22T12:10:41.053Z,3.22
2023-03-22T12:14:00.579Z,2.83
2023-03-22T12:17:11.477Z,3.00
2023-03-22T12:20:33.096Z,2.55
2023-03-22T12:23:35.357Z,2.75
2023-03-22T12:26:37.768Z,2.88
2023-03-22T12:29:46.805Z,3.10
2023-03-22T12:33:21.326Z,2.67
2023-03-22T12:36:33.025Z,2.28
2023-03-22T12:39:46.757Z,2.42
2023-03-22T12:43:00.240Z,2.72
2023-03-22T12:46:05.857Z,2.92
2023-03-22T12:49:20.710Z,2.58
2023-03-22T12:52:44.676Z,2.50
2023-03-22T12:55:50.000Z,2.92
2023-03-22T12:59:03.561Z,2.42
2023-03-22T13:02:19.125Z,2.20
2023-03-22T13:05:22.058Z,2.33
2023-03-22T13:08:24.857Z,2.58
2023-03-22T13:11:27.780Z,3.35
2023-03-22T13:15:28.256Z,2.53
2023-03-22T13:18:38.152Z,2.38
2023-03-22T13:21:41.403Z,2.47
2023-03-22T13:25:13.158Z,2.50
2023-03-22T13:28:26.429Z,2.60
2023-03-22T13:31:42.755Z,2.35
2023-03-22T13:34:48.618Z,2.60
2023-03-22T13:37:51.925Z,2.40
2023-03-22T13:41:04.059Z,1.92
2023-03-22T13:44:27.555Z,3.08
2023-03-22T13:47:31.713Z,2.00
2023-03-22T13:50:35.308Z,2.70
2023-03-22T13:53:41.410Z,2.40
2023-03-22T13:56:57.777Z,2.33
2023-03-22T14:00:21.007Z,2.60
2023-03-22T14:03:30.617Z,2.83
2023-03-22T14:06:39.559Z,2.40
2023-03-22T14:10:00.560Z,2.58
2023-03-22T14:13:17.354Z,2.20
2023-03-22T14:16:41.820Z,2.50
2023-03-22T14:19:44.279Z,2.80
